Terminal Aerodrome Forecast
Issued by NWS

Current Version | Previous Version | Text Only | Print | Product List | Glossary On
Versions: 1 2 3 4 5 6 7 8 9 10 11 12
000
FTUS41 KCAR 231100
TAFFVE
TAF
KFVE 231129Z 2312/2412 17006KT P6SM BKN250
     FM231400 21010G18KT P6SM SCT040 BKN090
     FM231600 23012G20KT 6SM SHRA VCTS SCT025 BKN035CB OVC100
      TEMPO 2317/2320 VRB15G40KT 2SM +TSRA OVC025CB
     FM232000 26008KT P6SM VCSH SCT040 BKN080
     FM232200 30012KT P6SM SCT060=

USA.gov is the U.S. government's official web portal to all federal, state and local government web resources and services.